Time;durP1;ratioP1;P1;durP2;ratioP2;P2;SDS_P1;SDS_P2;PMS_P1;PMS_P2;Temp;Humidity;BMP_temperature;BMP_pressure;BME280_temperature;BME280_humidity;BME280_pressure;Samples;Min_cycle;Max_cycle;Signal;HPM_P1;HPM_P2
2022/11/12 00:00:59;;;;;;;7.65;4.88;;;;;;;9.66;67.53;100712.97;5107148;28;20117;-70
2022/11/12 00:03:26;;;;;;;8.63;4.50;;;;;;;9.66;67.27;100712.09;5105792;28;20036;-70
2022/11/12 00:05:53;;;;;;;4.95;3.45;;;;;;;9.66;67.31;100717.38;5106711;28;20044;-71
2022/11/12 00:08:20;;;;;;;5.95;4.38;;;;;;;9.67;67.28;100721.78;5106798;28;20042;-71
2022/11/12 00:10:48;;;;;;;15.00;8.07;;;;;;;9.66;67.21;100717.38;5105940;28;20035;-70
2022/11/12 00:13:15;;;;;;;18.00;12.27;;;;;;;9.62;67.85;100719.25;5106716;28;20048;-70
2022/11/12 00:15:42;;;;;;;18.90;12.65;;;;;;;9.60;68.10;100714.00;5106621;28;20055;-70
2022/11/12 00:18:09;;;;;;;19.85;14.65;;;;;;;9.59;68.10;100714.06;5106295;28;20036;-70
2022/11/12 00:20:36;;;;;;;16.95;12.85;;;;;;;9.60;68.48;100710.50;5105759;28;20051;-70
2022/11/12 00:23:03;;;;;;;15.43;11.80;;;;;;;9.58;68.44;100707.91;5106522;28;20093;-70
2022/11/12 00:25:30;;;;;;;20.05;14.75;;;;;;;9.36;68.71;100677.66;5106235;28;20043;-70
2022/11/12 00:28:03;;;;;;;19.45;13.40;;;;;;;9.38;69.06;100680.25;5106352;28;20036;-71
2022/11/12 00:30:29;;;;;;;21.42;14.57;;;;;;;9.51;69.01;100706.34;5106144;28;20059;-72
2022/11/12 00:32:56;;;;;;;21.98;16.02;;;;;;;9.43;69.11;100686.31;5105247;28;20040;-72
2022/11/12 00:35:23;;;;;;;20.13;13.70;;;;;;;9.39;69.50;100679.34;5106054;28;20103;-72
2022/11/12 00:37:54;;;;;;;23.05;16.88;;;;;;;9.44;69.76;100696.84;5106108;28;20040;-71
2022/11/12 00:40:21;;;;;;;17.85;14.32;;;;;;;9.44;69.67;100703.94;5105125;28;20044;-72
2022/11/12 00:42:47;;;;;;;17.13;14.43;;;;;;;9.42;69.65;100696.03;5105199;28;20122;-71
2022/11/12 00:45:16;;;;;;;19.90;14.77;;;;;;;9.42;69.72;100697.81;5105102;28;20040;-71
2022/11/12 00:47:42;;;;;;;18.45;14.07;;;;;;;9.41;69.68;100698.72;5105094;28;20077;-71
2022/11/12 00:50:10;;;;;;;17.08;12.93;;;;;;;9.40;69.72;100703.16;5105649;28;20133;-71
2022/11/12 00:52:36;;;;;;;20.02;14.63;;;;;;;9.37;69.82;100697.91;5104948;28;20035;-71
2022/11/12 00:55:03;;;;;;;17.20;14.48;;;;;;;9.35;69.86;100701.50;5106037;28;20044;-71
2022/11/12 00:57:30;;;;;;;19.08;13.77;;;;;;;8.87;70.04;100628.78;5105636;28;20058;-71
2022/11/12 00:59:57;;;;;;;18.08;13.93;;;;;;;9.28;69.94;100695.53;5105953;28;20044;-71
2022/11/12 01:02:25;;;;;;;17.30;13.23;;;;;;;9.10;70.17;100667.78;5105743;28;20039;-71
2022/11/12 01:04:52;;;;;;;16.73;13.48;;;;;;;9.09;69.97;100659.91;5105380;28;20044;-71
2022/11/12 01:07:18;;;;;;;19.33;12.30;;;;;;;9.21;70.07;100692.19;5105863;28;20048;-71
2022/11/12 01:09:45;;;;;;;15.95;12.40;;;;;;;9.21;69.97;100688.69;5105318;28;20040;-71
2022/11/12 01:12:12;;;;;;;18.55;13.20;;;;;;;9.17;70.08;100687.88;5104960;28;20317;-71
2022/11/12 01:14:38;;;;;;;20.77;13.80;;;;;;;8.91;70.10;100646.28;5105845;28;20044;-71
2022/11/12 01:17:05;;;;;;;18.10;13.15;;;;;;;9.11;70.33;100689.81;5105454;28;20044;-71
2022/11/12 01:19:34;;;;;;;16.27;12.50;;;;;;;9.10;70.12;100688.09;5105545;28;20040;-70
2022/11/12 01:22:00;;;;;;;14.80;12.05;;;;;;;9.09;70.18;100676.63;5104680;28;20204;-71
2022/11/12 01:24:27;;;;;;;15.63;11.65;;;;;;;9.08;70.03;100674.91;5105440;28;20043;-70
2022/11/12 01:26:54;;;;;;;17.50;11.85;;;;;;;9.06;69.92;100678.50;5104568;28;20044;-71
2022/11/12 01:29:20;;;;;;;13.43;10.30;;;;;;;9.04;69.81;100669.75;5105679;28;20097;-71
2022/11/12 01:31:47;;;;;;;17.63;11.65;;;;;;;8.40;69.96;100563.16;5105642;28;20101;-71
2022/11/12 01:34:14;;;;;;;15.85;10.95;;;;;;;9.03;69.99;100663.59;5105655;28;20094;-71
2022/11/12 01:36:42;;;;;;;15.07;11.18;;;;;;;9.01;69.95;100678.63;5105589;28;20238;-71
2022/11/12 01:39:09;;;;;;;12.25;8.77;;;;;;;8.26;69.68;100569.66;5105674;28;20067;-71
2022/11/12 01:41:38;;;;;;;14.95;9.82;;;;;;;8.98;69.68;100663.72;5104515;28;20060;-71
2022/11/12 01:44:13;;;;;;;11.25;9.25;;;;;;;8.95;69.59;100677.03;5104461;28;20036;-71
2022/11/12 01:46:50;;;;;;;13.20;9.32;;;;;;;8.79;69.87;100645.75;5105265;28;20044;-71
2022/11/12 01:49:22;;;;;;;11.13;7.85;;;;;;;8.79;69.57;100648.41;5104780;28;20052;-72
2022/11/12 01:51:54;;;;;;;12.73;8.23;;;;;;;8.65;69.35;100628.50;5104384;28;20044;-72
2022/11/12 01:54:22;;;;;;;9.88;7.13;;;;;;;8.95;69.41;100684.94;5105514;28;20090;-72
2022/11/12 01:56:50;;;;;;;8.60;7.05;;;;;;;8.94;69.25;100688.50;5105370;28;20047;-72
2022/11/12 01:59:23;;;;;;;8.82;6.15;;;;;;;8.93;69.36;100683.25;5105222;28;20085;-72
2022/11/12 02:01:49;;;;;;;8.93;6.63;;;;;;;8.91;69.15;100680.66;5105151;28;20187;-72
2022/11/12 02:04:17;;;;;;;8.05;6.43;;;;;;;8.16;69.00;100546.19;5105125;28;20299;-72
2022/11/12 02:06:45;;;;;;;8.18;6.80;;;;;;;8.91;69.00;100667.44;5105397;28;20302;-71
2022/11/12 02:09:14;;;;;;;8.88;6.68;;;;;;;8.87;68.82;100667.56;5105352;28;20044;-71
2022/11/12 02:11:41;;;;;;;14.00;6.85;;;;;;;8.86;68.66;100674.63;5104509;28;20089;-71
2022/11/12 02:14:07;;;;;;;8.82;7.18;;;;;;;5.80;68.67;100146.97;5105311;28;20044;-72
2022/11/12 02:16:38;;;;;;;8.95;6.68;;;;;;;8.69;68.80;100637.22;5106682;28;20093;-72
2022/11/12 02:19:07;;;;;;;9.45;7.30;;;;;;;8.84;68.64;100665.88;5108648;28;20085;-72
2022/11/12 02:21:35;;;;;;;9.02;6.80;;;;;;;8.64;68.67;100636.47;5108588;28;20044;-71
2022/11/12 02:24:05;;;;;;;9.95;5.50;;;;;;;8.52;68.79;100613.00;5108792;28;20052;-72
2022/11/12 02:26:35;;;;;;;8.10;5.47;;;;;;;8.78;68.76;100666.03;5108814;28;20288;-72
2022/11/12 02:29:02;;;;;;;8.05;5.50;;;;;;;8.13;68.71;100557.69;5108691;28;20081;-72
2022/11/12 02:31:29;;;;;;;7.15;5.22;;;;;;;8.71;68.81;100655.66;5108710;28;20089;-71
2022/11/12 02:33:55;;;;;;;6.95;4.60;;;;;;;8.74;68.69;100656.47;5108305;28;20043;-71
2022/11/12 02:36:23;;;;;;;5.40;4.65;;;;;;;8.35;68.63;100592.31;5108323;28;20040;-71
2022/11/12 02:38:51;;;;;;;8.15;4.60;;;;;;;8.74;68.67;100658.22;5108193;28;20093;-71
2022/11/12 02:41:18;;;;;;;8.48;5.30;;;;;;;8.73;68.75;100652.06;5107929;28;20051;-72
2022/11/12 02:43:45;;;;;;;6.68;5.05;;;;;;;8.73;68.37;100656.50;5108214;28;20093;-71
2022/11/12 02:46:12;;;;;;;8.07;4.95;;;;;;;8.73;68.40;100654.72;5107264;28;20310;-71
2022/11/12 02:48:39;;;;;;;6.35;5.35;;;;;;;8.72;68.54;100655.63;5107833;28;20238;-72
2022/11/12 02:51:06;;;;;;;7.50;5.40;;;;;;;8.73;68.42;100651.22;5108290;28;20051;-71
2022/11/12 02:53:33;;;;;;;8.70;6.30;;;;;;;8.73;68.56;100651.22;5108277;28;20044;-71
2022/11/12 02:56:02;;;;;;;8.77;6.47;;;;;;;8.29;68.60;100581.94;5108209;28;20044;-72
2022/11/12 02:58:28;;;;;;;7.68;6.07;;;;;;;8.74;68.54;100652.94;5108038;28;20051;-72
2022/11/12 03:00:55;;;;;;;11.05;7.50;;;;;;;8.74;68.81;100652.94;5107513;28;20046;-71
2022/11/12 03:03:22;;;;;;;10.93;7.53;;;;;;;7.67;68.66;100468.28;5107815;28;20066;-71
2022/11/12 03:05:55;;;;;;;10.52;7.90;;;;;;;8.75;68.90;100659.97;5106924;28;20299;-71
2022/11/12 03:08:22;;;;;;;10.18;7.75;;;;;;;8.75;68.94;100660.84;5107948;28;20035;-71
2022/11/12 03:10:49;;;;;;;10.48;7.03;;;;;;;8.77;68.94;100663.44;5107943;28;20044;-71
2022/11/12 03:13:18;;;;;;;9.13;6.82;;;;;;;8.77;69.02;100661.66;5108218;28;20077;-71
2022/11/12 03:15:45;;;;;;;7.13;5.38;;;;;;;8.80;68.81;100655.41;5106978;28;20036;-71
2022/11/12 03:18:11;;;;;;;8.45;5.82;;;;;;;8.80;68.65;100661.56;5106595;28;20044;-71
2022/11/12 03:20:38;;;;;;;5.32;3.67;;;;;;;8.82;67.90;100658.88;5107425;28;20040;-71
2022/11/12 03:23:07;;;;;;;4.13;2.67;;;;;;;8.84;67.38;100655.28;5107987;28;20051;-71
2022/11/12 03:25:35;;;;;;;4.20;2.95;;;;;;;8.87;67.33;100651.69;5107294;28;20055;-71
2022/11/12 03:28:05;;;;;;;4.05;2.70;;;;;;;8.86;67.41;100656.13;5106761;28;20036;-71
2022/11/12 03:30:36;;;;;;;6.25;2.85;;;;;;;8.26;66.52;100547.66;5106442;28;20036;-71
2022/11/12 03:33:03;;;;;;;4.45;2.20;;;;;;;8.89;66.79;100657.81;5106362;28;20040;-71
2022/11/12 03:35:30;;;;;;;3.63;2.30;;;;;;;8.89;67.00;100653.38;5107112;28;20044;-70
2022/11/12 03:37:57;;;;;;;3.33;2.50;;;;;;;8.17;66.39;100579.59;5107028;28;20044;-70
2022/11/12 03:40:24;;;;;;;4.15;2.40;;;;;;;8.91;66.56;100663.94;5107345;28;20035;-70
2022/11/12 03:42:52;;;;;;;3.25;2.30;;;;;;;8.81;66.69;100647.44;5106149;28;20039;-71
2022/11/12 03:45:20;;;;;;;3.72;2.50;;;;;;;8.91;66.67;100669.22;5106941;28;20043;-70
2022/11/12 03:47:50;;;;;;;4.85;3.15;;;;;;;8.90;66.66;100670.13;5106866;28;20344;-71
2022/11/12 03:50:18;;;;;;;5.93;3.65;;;;;;;8.52;66.21;100610.38;5106761;28;20056;-71
2022/11/12 03:52:46;;;;;;;6.25;3.60;;;;;;;8.25;66.21;100577.63;5106787;28;20101;-71
2022/11/12 03:55:14;;;;;;;5.90;3.53;;;;;;;8.87;66.52;100672.84;5106843;28;20300;-71
2022/11/12 03:57:40;;;;;;;6.03;2.80;;;;;;;8.85;66.45;100672.03;5106906;28;20040;-71
2022/11/12 04:00:09;;;;;;;3.80;2.85;;;;;;;8.84;66.33;100662.34;5106992;28;20044;-71
2022/11/12 04:02:36;;;;;;;3.95;2.28;;;;;;;8.84;66.49;100665.00;5106652;28;20082;-70
2022/11/12 04:10:33;;;;;;;4.23;3.20;;;;;;;8.77;66.51;100656.38;5106759;28;20101;-70
2022/11/12 04:21:49;;;;;;;5.78;5.03;;;;;;;8.76;66.89;100662.56;5106436;28;20107;-71
2022/11/12 04:24:00;;;;;;;8.85;6.38;;;;;;;8.37;68.67;100651.28;5105552;28;20047;-71
2022/11/12 04:26:26;;;;;;;8.55;6.30;;;;;;;8.49;68.79;100685.31;5106515;28;20040;-71
2022/11/12 04:31:37;;;;;;;7.40;6.38;;;;;;;8.39;69.41;100682.94;5105190;28;20047;-71
2022/11/12 04:36:45;;;;;;;6.25;5.07;;;;;;;8.41;68.98;100684.63;5105842;28;20318;-71
2022/11/12 04:39:12;;;;;;;8.48;5.55;;;;;;;8.42;68.96;100678.44;5104380;28;20050;-71
2022/11/12 04:47:09;;;;;;;7.63;5.40;;;;;;;8.32;69.06;100677.81;5105931;28;20063;-71
2022/11/12 04:49:36;;;;;;;6.43;4.97;;;;;;;8.30;69.14;100679.63;5105682;28;20056;-71
2022/11/12 04:52:07;;;;;;;7.18;5.88;;;;;;;8.27;69.15;100676.19;5104995;28;20043;-71
2022/11/12 04:54:34;;;;;;;6.15;4.88;;;;;;;8.24;69.12;100668.34;5106104;28;20040;-71
2022/11/12 04:57:01;;;;;;;6.43;5.32;;;;;;;8.21;69.28;100669.28;5106046;28;20280;-71
2022/11/12 04:59:27;;;;;;;6.50;4.78;;;;;;;8.21;69.34;100671.91;5105951;28;20040;-71
2022/11/12 05:01:54;;;;;;;6.38;5.22;;;;;;;8.21;69.33;100681.63;5104894;28;20081;-71
2022/11/12 05:04:21;;;;;;;8.27;4.85;;;;;;;8.19;69.36;100672.88;5104859;28;20353;-71
2022/11/12 05:06:51;;;;;;;8.00;5.15;;;;;;;8.15;69.42;100673.84;5105629;28;20040;-71
2022/11/12 05:09:21;;;;;;;6.90;5.40;;;;;;;7.91;69.63;100651.53;5105603;28;20044;-71
2022/11/12 05:11:47;;;;;;;5.55;4.63;;;;;;;8.06;69.46;100674.94;5106162;28;20044;-70
2022/11/12 05:14:15;;;;;;;7.05;5.20;;;;;;;8.07;69.53;100683.72;5088612;28;20310;-71
2022/11/12 05:16:42;;;;;;;5.60;4.90;;;;;;;8.05;69.68;100685.53;5104674;28;20300;-71
2022/11/12 05:19:08;;;;;;;6.80;4.75;;;;;;;8.02;69.57;100686.47;5104629;28;20055;-71
2022/11/12 05:24:22;;;;;;;7.20;5.53;;;;;;;7.95;69.69;100685.75;5105510;28;20101;-71
2022/11/12 05:26:48;;;;;;;8.27;6.47;;;;;;;7.46;69.70;100608.59;5105753;28;20070;-71
2022/11/12 05:29:15;;;;;;;6.93;4.88;;;;;;;7.94;69.75;100686.66;5104537;28;20036;-71
2022/11/12 05:31:42;;;;;;;6.03;5.18;;;;;;;7.91;69.91;100683.22;5105445;28;20055;-71
2022/11/12 05:34:09;;;;;;;7.22;5.32;;;;;;;7.90;69.88;100690.25;5104544;28;20036;-71
2022/11/12 05:36:36;;;;;;;8.55;6.18;;;;;;;7.87;70.02;100692.97;5105653;28;20040;-71
2022/11/12 05:39:03;;;;;;;6.47;5.68;;;;;;;7.83;70.15;100688.66;5104422;28;20046;-71
2022/11/12 05:41:31;;;;;;;6.22;5.38;;;;;;;7.81;70.31;100685.19;5104908;28;20044;-71
2022/11/12 05:43:58;;;;;;;6.63;5.78;;;;;;;7.26;70.16;100601.09;5105304;28;20349;-71
2022/11/12 05:46:25;;;;;;;6.95;5.22;;;;;;;7.83;70.10;100693.94;5105602;28;20048;-71
2022/11/12 05:48:52;;;;;;;6.95;5.40;;;;;;;7.82;70.13;100692.22;5105038;28;20337;-71
2022/11/12 05:51:18;;;;;;;7.80;5.85;;;;;;;7.12;70.26;100574.16;5107694;28;20044;-71
2022/11/12 05:53:45;;;;;;;9.48;5.13;;;;;;;7.57;70.18;100659.34;5109375;28;20040;-71
2022/11/12 05:56:12;;;;;;;7.93;5.93;;;;;;;7.77;70.30;100699.38;5109284;28;20044;-71
2022/11/12 05:58:41;;;;;;;7.28;5.90;;;;;;;7.66;70.27;100681.13;5109232;28;20086;-71
2022/11/12 06:01:07;;;;;;;7.30;4.95;;;;;;;7.74;70.32;100706.47;5109189;28;20101;-71
2022/11/12 06:03:34;;;;;;;7.10;5.35;;;;;;;7.74;70.28;100702.06;5109415;28;20226;-71
2022/11/12 06:06:01;;;;;;;7.38;5.38;;;;;;;7.76;70.28;100702.03;5108962;28;20035;-71
2022/11/12 06:08:28;;;;;;;6.85;5.80;;;;;;;7.76;70.17;100707.31;5108275;28;20043;-70
2022/11/12 06:10:55;;;;;;;5.93;4.53;;;;;;;7.77;70.36;100703.78;5108849;28;20051;-70
2022/11/12 06:13:25;;;;;;;8.10;5.38;;;;;;;7.77;70.28;100709.91;5108879;28;20036;-71
2022/11/12 06:15:53;;;;;;;7.05;4.82;;;;;;;7.78;70.23;100702.88;5107942;28;20043;-71
2022/11/12 06:18:20;;;;;;;5.72;4.32;;;;;;;7.78;70.01;100711.66;5108656;28;20047;-71
2022/11/12 06:21:18;;;;;;;5.88;4.25;;;;;;;7.61;69.92;100685.66;5108725;28;20200;-71
2022/11/12 06:23:35;;;;;;;5.03;3.78;;;;;;;7.77;69.90;100709.91;5108553;28;20071;-71
2022/11/12 06:26:02;;;;;;;5.03;4.03;;;;;;;7.15;69.80;100603.09;5107740;28;20101;-71
2022/11/12 06:28:29;;;;;;;6.72;3.63;;;;;;;7.83;69.58;100716.84;5108461;28;20081;-71
2022/11/12 06:30:57;;;;;;;4.68;3.78;;;;;;;7.83;69.46;100720.34;5108696;28;20173;-71
2022/11/12 06:33:24;;;;;;;6.25;3.92;;;;;;;7.82;69.46;100717.75;5108355;28;20082;-71
2022/11/12 06:35:57;;;;;;;5.13;4.03;;;;;;;7.83;69.28;100722.13;5108581;28;20102;-70
2022/11/12 06:38:24;;;;;;;5.40;3.72;;;;;;;7.85;69.23;100718.53;5107335;28;20040;-71
2022/11/12 06:40:51;;;;;;;4.45;3.60;;;;;;;7.67;69.19;100682.88;5108445;28;20226;-71
2022/11/12 06:43:17;;;;;;;4.97;3.20;;;;;;;7.89;69.29;100728.13;5107410;28;20043;-71
2022/11/12 06:45:44;;;;;;;4.65;3.90;;;;;;;6.99;68.99;100578.84;5108387;28;20040;-70
2022/11/12 06:48:12;;;;;;;4.60;3.92;;;;;;;7.93;69.01;100721.00;5108335;28;20066;-70
2022/11/12 06:50:39;;;;;;;6.25;3.75;;;;;;;7.96;69.06;100723.56;5107849;28;20101;-71
2022/11/12 06:53:06;;;;;;;8.57;5.57;;;;;;;8.00;68.88;100727.88;5108473;28;20066;-71
2022/11/12 06:55:33;;;;;;;6.80;4.45;;;;;;;7.81;68.98;100689.59;5107548;28;20044;-71
2022/11/12 06:58:00;;;;;;;5.68;4.40;;;;;;;8.02;68.98;100719.03;5107443;28;20069;-71
2022/11/12 07:00:26;;;;;;;7.07;4.97;;;;;;;8.06;68.91;100735.66;5107841;28;20207;-70
2022/11/12 07:02:53;;;;;;;7.07;4.38;;;;;;;8.11;68.90;100730.28;5106975;28;20052;-71
2022/11/12 07:05:21;;;;;;;5.78;4.18;;;;;;;8.15;68.76;100721.38;5108328;28;20040;-71
2022/11/12 07:07:48;;;;;;;7.22;4.45;;;;;;;8.18;68.84;100724.81;5106914;28;20040;-71
2022/11/12 07:10:15;;;;;;;7.57;5.95;;;;;;;7.55;68.72;100618.94;5106868;28;20047;-71
2022/11/12 07:12:42;;;;;;;9.30;6.07;;;;;;;8.26;68.84;100728.13;5107523;28;20043;-71
2022/11/12 07:15:09;;;;;;;9.18;7.68;;;;;;;8.29;69.03;100730.72;5106593;28;20039;-71
2022/11/12 07:17:36;;;;;;;7.97;6.80;;;;;;;8.34;68.94;100733.22;5107359;28;20044;-72
2022/11/12 07:20:03;;;;;;;7.90;6.05;;;;;;;8.39;68.87;100726.06;5107353;28;20040;-71
2022/11/12 07:22:33;;;;;;;6.78;5.35;;;;;;;8.44;68.64;100723.31;5107671;28;20035;-71
2022/11/12 07:24:59;;;;;;;6.40;4.38;;;;;;;8.49;68.42;100717.00;5089828;28;20079;-71
2022/11/12 07:27:29;;;;;;;4.13;3.17;;;;;;;8.58;67.93;100723.84;5107144;28;20044;-71
2022/11/12 07:29:56;;;;;;;3.78;2.75;;;;;;;8.67;67.74;100720.97;5107395;28;20040;-70
2022/11/12 07:32:22;;;;;;;3.85;3.05;;;;;;;8.75;67.17;100724.28;5106403;28;20101;-71
2022/11/12 07:34:50;;;;;;;3.83;3.20;;;;;;;8.84;66.76;100718.75;5107145;28;20036;-70
2022/11/12 07:37:16;;;;;;;3.78;2.58;;;;;;;8.80;66.47;100689.78;5106246;28;20039;-70
2022/11/12 07:39:45;;;;;;;6.35;4.15;;;;;;;8.88;66.06;100685.16;5106560;28;20168;-71
2022/11/12 07:42:11;;;;;;;5.70;3.17;;;;;;;9.19;65.97;100708.97;5107002;28;20043;-70
2022/11/12 07:44:38;;;;;;;5.95;4.70;;;;;;;9.32;65.76;100710.41;5106926;28;20044;-71
2022/11/12 07:47:05;;;;;;;12.77;8.02;;;;;;;9.46;65.79;100712.69;5106835;28;20051;-71
2022/11/12 07:49:31;;;;;;;18.75;9.43;;;;;;;9.60;66.07;100713.16;5106710;28;20051;-71
2022/11/12 07:51:58;;;;;;;13.05;8.73;;;;;;;9.43;65.64;100665.16;5106820;28;20044;-71
2022/11/12 07:54:25;;;;;;;11.85;8.43;;;;;;;9.85;65.30;100721.22;5106397;28;20093;-71
2022/11/12 07:56:53;;;;;;;14.23;8.15;;;;;;;9.95;65.06;100726.19;5106987;28;20036;-71
2022/11/12 07:59:20;;;;;;;8.73;7.05;;;;;;;10.10;64.76;100731.91;5106702;28;20238;-71
2022/11/12 08:01:46;;;;;;;9.52;6.88;;;;;;;10.23;64.34;100726.19;5105590;28;20051;-71
2022/11/12 08:04:13;;;;;;;9.77;7.00;;;;;;;10.38;64.13;100724.81;5106588;28;20040;-71
2022/11/12 08:06:40;;;;;;;11.25;7.38;;;;;;;10.54;63.91;100727.84;5106354;28;20043;-71
2022/11/12 08:09:09;;;;;;;10.35;7.15;;;;;;;10.69;63.70;100718.50;5106498;28;20036;-71
2022/11/12 08:11:36;;;;;;;8.85;7.03;;;;;;;10.83;63.21;100718.94;5105642;28;20295;-71
2022/11/12 08:14:04;;;;;;;8.27;6.65;;;;;;;10.12;63.07;100568.50;5105525;28;20036;-71
2022/11/12 08:16:31;;;;;;;9.63;6.38;;;;;;;11.14;62.67;100714.28;5106290;28;20050;-71
2022/11/12 08:18:58;;;;;;;11.82;8.13;;;;;;;11.31;62.40;100716.31;5106120;28;20047;-71
2022/11/12 08:21:25;;;;;;;12.73;7.38;;;;;;;11.48;62.22;100705.94;5106587;28;20292;-71
2022/11/12 08:23:51;;;;;;;10.02;7.43;;;;;;;11.41;62.22;100663.75;5106321;28;20048;-71
2022/11/12 08:26:20;;;;;;;9.10;6.93;;;;;;;11.36;61.51;100644.47;5106354;28;20188;-71
2022/11/12 08:28:46;;;;;;;8.15;6.57;;;;;;;11.72;60.75;100676.72;5105232;28;20040;-71
2022/11/12 08:31:17;;;;;;;9.02;6.38;;;;;;;12.06;60.29;100711.69;5106579;28;20055;-71
2022/11/12 08:33:44;;;;;;;7.03;6.25;;;;;;;12.21;60.21;100714.69;5105443;28;20058;-71
2022/11/12 08:36:13;;;;;;;9.05;5.78;;;;;;;12.31;60.20;100718.72;5106502;28;20172;-71
2022/11/12 08:38:41;;;;;;;7.88;5.55;;;;;;;12.40;59.57;100716.53;5106197;28;20047;-71
2022/11/12 08:41:09;;;;;;;7.43;5.28;;;;;;;12.51;59.64;100724.06;5105507;28;20043;-71
2022/11/12 08:43:37;;;;;;;8.50;4.65;;;;;;;12.31;59.01;100666.41;5105539;28;20044;-70
2022/11/12 08:46:04;;;;;;;5.30;4.10;;;;;;;12.75;58.68;100714.19;5106078;28;20191;-71
2022/11/12 08:48:34;;;;;;;5.90;4.55;;;;;;;12.86;57.20;100719.06;5105159;28;20040;-71
2022/11/12 08:51:01;;;;;;;5.60;4.30;;;;;;;12.96;58.09;100723.06;5105535;28;20044;-70
2022/11/12 08:53:28;;;;;;;5.07;4.07;;;;;;;12.66;57.60;100664.06;5106001;28;20048;-70
2022/11/12 08:55:56;;;;;;;4.90;3.22;;;;;;;13.09;57.25;100722.44;5105119;28;20093;-70
2022/11/12 08:58:24;;;;;;;5.95;3.80;;;;;;;13.38;56.58;100728.28;5105942;28;20103;-71
2022/11/12 09:00:51;;;;;;;6.38;4.05;;;;;;;13.46;56.38;100737.69;5105846;28;20040;-70
2022/11/12 09:03:20;;;;;;;6.63;3.78;;;;;;;13.38;55.74;100707.84;5105824;28;20048;-72
2022/11/12 09:05:49;;;;;;;5.03;3.60;;;;;;;13.35;55.34;100677.81;5106786;28;20058;-71
2022/11/12 09:08:18;;;;;;;7.97;4.32;;;;;;;13.75;55.43;100736.34;5107547;28;20062;-71
2022/11/12 09:10:46;;;;;;;5.10;4.15;;;;;;;13.87;55.15;100734.91;5105852;28;20036;-70
2022/11/12 09:13:14;;;;;;;5.68;3.80;;;;;;;13.40;54.65;100630.53;5105221;28;20048;-70
2022/11/12 09:15:41;;;;;;;10.70;5.22;;;;;;;14.05;54.19;100739.38;5106027;28;20044;-71
2022/11/12 09:18:11;;;;;;;8.90;5.28;;;;;;;13.71;54.01;100700.13;5105693;28;20051;-71
2022/11/12 09:20:38;;;;;;;7.38;4.82;;;;;;;14.21;53.92;100747.50;5105857;28;20055;-71
2022/11/12 09:23:08;;;;;;;6.18;4.70;;;;;;;14.29;52.91;100739.13;5104682;28;20051;-71
2022/11/12 09:25:35;;;;;;;6.90;5.35;;;;;;;14.36;53.16;100748.56;5106835;28;20048;-71
2022/11/12 09:28:08;;;;;;;7.28;4.68;;;;;;;14.39;51.96;100738.59;5109883;28;20283;-72
2022/11/12 09:30:35;;;;;;;6.57;4.72;;;;;;;14.50;53.50;100742.56;5108519;28;20109;-71
2022/11/12 09:33:01;;;;;;;6.88;4.80;;;;;;;14.62;52.85;100736.66;5108893;28;20044;-71
2022/11/12 09:35:28;;;;;;;7.28;3.72;;;;;;;14.78;52.71;100744.78;5109205;28;20052;-71
2022/11/12 09:37:55;;;;;;;4.15;3.05;;;;;;;14.94;52.02;100735.91;5109647;28;20044;-71
2022/11/12 09:40:36;;;;;;;6.80;3.95;;;;;;;15.10;49.90;100727.09;5108319;28;20047;-72
2022/11/12 09:43:11;;;;;;;4.38;3.58;;;;;;;15.24;48.75;100732.59;5109228;28;20211;-71
2022/11/12 09:45:39;;;;;;;5.25;2.97;;;;;;;15.10;50.85;100684.38;5108276;28;20040;-71
2022/11/12 09:48:09;;;;;;;4.05;2.85;;;;;;;15.54;50.18;100722.94;5109393;28;20056;-71
2022/11/12 09:50:40;;;;;;;4.68;3.38;;;;;;;15.70;49.64;100718.50;5108177;28;20319;-71
2022/11/12 09:53:14;;;;;;;6.25;2.90;;;;;;;15.85;47.81;100723.97;5108983;28;20048;-71
2022/11/12 09:55:46;;;;;;;5.57;3.05;;;;;;;15.69;48.36;100684.72;5108447;28;20295;-71
2022/11/12 09:58:14;;;;;;;5.72;3.15;;;;;;;15.78;48.74;100682.47;5108161;28;20040;-71
2022/11/12 10:00:43;;;;;;;3.80;2.67;;;;;;;16.15;48.34;100727.59;5109089;28;20055;-72
2022/11/12 10:03:29;;;;;;;6.88;3.80;;;;;;;16.30;44.68;100733.88;5108797;28;20086;-71
2022/11/12 10:06:01;;;;;;;5.70;3.53;;;;;;;16.40;46.81;100724.38;5108767;28;20103;-71
2022/11/12 10:08:38;;;;;;;4.53;3.38;;;;;;;16.54;44.82;100727.13;5108700;28;20284;-71
2022/11/12 10:11:24;;;;;;;4.18;2.60;;;;;;;16.30;44.12;100675.88;5107789;28;20044;-72
2022/11/12 10:14:03;;;;;;;4.53;2.80;;;;;;;15.55;43.83;100534.09;5108893;28;20110;-72
2022/11/12 10:16:46;;;;;;;4.22;2.85;;;;;;;16.76;43.69;100728.56;5108405;28;20085;-71
2022/11/12 10:19:36;;;;;;;3.78;2.70;;;;;;;16.57;43.62;100672.56;5108316;28;20042;-72
2022/11/12 10:22:15;;;;;;;3.67;2.60;;;;;;;16.68;44.84;100664.78;5107545;28;20051;-71
2022/11/12 10:24:44;;;;;;;5.60;3.33;;;;;;;16.92;46.39;100695.44;5108648;28;20188;-72
2022/11/12 10:27:16;;;;;;;4.15;2.95;;;;;;;17.12;43.83;100701.41;5108599;28;20051;-71
2022/11/12 10:29:49;;;;;;;5.38;3.25;;;;;;;16.77;44.40;100636.59;5107324;28;20052;-72
2022/11/12 10:32:16;;;;;;;4.88;3.67;;;;;;;17.25;46.02;100699.72;5108235;28;20048;-72
2022/11/12 10:34:43;;;;;;;5.03;3.45;;;;;;;17.05;45.63;100636.63;5108209;28;20097;-72
2022/11/12 10:37:15;;;;;;;14.20;3.67;;;;;;;17.47;44.13;100684.03;5107119;28;20287;-72
2022/11/12 10:39:46;;;;;;;4.50;3.10;;;;;;;17.57;44.87;100682.50;5108015;28;20040;-72
2022/11/12 10:42:16;;;;;;;8.63;3.67;;;;;;;17.60;43.58;100671.59;5107291;28;20089;-72
2022/11/12 10:44:44;;;;;;;4.82;3.33;;;;;;;17.52;44.04;100648.91;5108321;28;20048;-71
2022/11/12 10:47:21;;;;;;;5.25;3.08;;;;;;;17.70;41.52;100671.88;5108209;28;20044;-72
2022/11/12 10:50:04;;;;;;;6.47;3.28;;;;;;;17.76;40.28;100666.13;5107689;28;20044;-72
2022/11/12 10:52:31;;;;;;;4.80;3.08;;;;;;;17.82;43.87;100664.88;5107821;28;20048;-72
2022/11/12 10:55:05;;;;;;;5.22;3.38;;;;;;;17.88;40.83;100675.22;5108202;28;20036;-72
2022/11/12 10:57:33;;;;;;;8.02;4.25;;;;;;;17.94;42.82;100667.63;5108069;28;20052;-72
2022/11/12 11:00:09;;;;;;;4.40;2.42;;;;;;;17.98;39.68;100656.69;5107636;28;20047;-72
2022/11/12 11:02:36;;;;;;;5.80;3.92;;;;;;;17.59;43.28;100588.59;5107652;28;20044;-72
2022/11/12 11:05:27;;;;;;;6.10;4.30;;;;;;;18.03;38.82;100651.91;5107897;28;20086;-72
2022/11/12 11:07:54;;;;;;;6.57;3.72;;;;;;;18.07;42.58;100656.97;5107818;28;20039;-72
2022/11/12 11:10:26;;;;;;;7.88;4.32;;;;;;;17.25;40.91;100501.47;5107839;28;20040;-71
2022/11/12 11:13:18;;;;;;;6.88;3.97;;;;;;;18.09;38.26;100649.66;5107573;28;20089;-72
2022/11/12 11:15:58;;;;;;;4.88;3.25;;;;;;;18.08;38.54;100650.63;5107853;28;20055;-72
2022/11/12 11:18:25;;;;;;;6.05;2.83;;;;;;;18.08;41.74;100653.31;5106482;28;20040;-72
2022/11/12 11:21:02;;;;;;;3.67;2.22;;;;;;;18.09;39.65;100654.16;5107320;28;20052;-72
2022/11/12 11:23:37;;;;;;;3.80;2.30;;;;;;;18.13;38.80;100651.19;5106478;28;20400;-72
2022/11/12 11:26:15;;;;;;;5.75;3.42;;;;;;;18.22;40.25;100638.97;5106766;28;20226;-72
2022/11/12 11:28:54;;;;;;;4.78;3.03;;;;;;;18.22;39.11;100630.94;5107219;28;20036;-71
2022/11/12 11:31:31;;;;;;;5.93;3.35;;;;;;;18.25;39.04;100633.41;5107271;28;20048;-72
2022/11/12 11:34:12;;;;;;;5.07;2.97;;;;;;;18.23;38.33;100617.41;5090017;28;20047;-72
2022/11/12 11:36:48;;;;;;;4.82;3.00;;;;;;;17.62;39.27;100530.31;5107454;28;20052;-71
2022/11/12 11:39:25;;;;;;;6.10;4.95;;;;;;;18.21;38.49;100619.34;5106894;28;20044;-72
2022/11/12 11:42:07;;;;;;;5.00;4.05;;;;;;;18.23;38.17;100614.72;5105843;28;20044;-72
2022/11/12 11:44:43;;;;;;;5.20;3.53;;;;;;;18.17;37.91;100622.34;5106913;28;20051;-70
2022/11/12 11:47:27;;;;;;;6.13;3.35;;;;;;;17.33;38.27;100475.03;5105948;28;20047;-71
2022/11/12 11:50:20;;;;;;;5.90;3.10;;;;;;;17.50;36.74;100501.59;5106507;28;20055;-71
2022/11/12 11:52:57;;;;;;;7.43;5.05;;;;;;;18.25;38.70;100617.31;5107074;28;20093;-71
2022/11/12 11:55:36;;;;;;;7.00;4.05;;;;;;;17.91;37.37;100576.63;5105900;28;20086;-71
2022/11/12 11:58:49;;;;;;;6.00;4.28;;;;;;;18.01;36.59;100570.66;5106854;28;20035;-71
2022/11/12 12:01:25;;;;;;;5.47;3.97;;;;;;;18.16;38.41;100612.56;5105613;28;20238;-72
2022/11/12 12:04:06;;;;;;;4.78;3.78;;;;;;;18.16;38.51;100608.06;5106393;28;20051;-71